createdAt,value
2019-05-22T00:00:43.108Z,12.40
2019-05-22T00:03:14.622Z,13.20
2019-05-22T00:05:45.127Z,12.10
2019-05-22T00:08:17.501Z,11.97
2019-05-22T00:10:49.218Z,11.55
2019-05-22T00:13:20.479Z,9.35
2019-05-22T00:15:51.580Z,13.25
2019-05-22T00:18:22.703Z,10.70
2019-05-22T00:20:53.976Z,14.93
2019-05-22T00:23:23.447Z,12.53
2019-05-22T00:25:54.526Z,14.18
2019-05-22T00:28:27.009Z,12.58
2019-05-22T00:30:57.384Z,11.63
2019-05-22T00:33:27.481Z,11.20
2019-05-22T00:35:58.828Z,10.25
2019-05-22T00:38:29.660Z,9.00
2019-05-22T00:41:00.761Z,13.25
2019-05-22T00:43:32.265Z,12.18
2019-05-22T00:46:05.334Z,13.43
2019-05-22T00:48:35.831Z,10.72
2019-05-22T00:51:10.375Z,10.60
2019-05-22T00:53:41.730Z,13.62
2019-05-22T00:56:14.216Z,11.22
2019-05-22T00:58:45.736Z,8.40
2019-05-22T01:01:17.278Z,11.65
2019-05-22T01:03:49.035Z,7.80
2019-05-22T01:06:21.281Z,11.65
2019-05-22T01:08:52.867Z,9.85
2019-05-22T01:11:24.732Z,14.00
2019-05-22T01:13:54.800Z,12.03
2019-05-22T01:16:25.695Z,12.95
2019-05-22T01:18:55.389Z,13.43
2019-05-22T01:21:25.924Z,11.73
2019-05-22T01:23:57.891Z,13.58
2019-05-22T01:26:28.902Z,11.55
2019-05-22T01:28:58.340Z,9.90
2019-05-22T01:31:30.469Z,11.18
2019-05-22T01:34:02.060Z,11.80
2019-05-22T01:36:33.939Z,13.38
2019-05-22T01:39:09.723Z,13.83
2019-05-22T01:41:41.732Z,10.20
2019-05-22T01:44:11.459Z,11.08
2019-05-22T01:46:43.537Z,10.28
2019-05-22T01:49:14.559Z,10.35
2019-05-22T01:51:46.439Z,11.03
2019-05-22T01:54:16.368Z,10.63
2019-05-22T01:56:45.797Z,9.20
2019-05-22T01:59:15.325Z,9.63
2019-05-22T02:01:45.142Z,9.30
2019-05-22T02:04:15.812Z,9.25
2019-05-22T02:06:46.100Z,8.73
2019-05-22T02:09:21.929Z,9.78
2019-05-22T02:11:56.877Z,9.00
2019-05-22T02:16:57.080Z,11.10
2019-05-22T02:19:28.376Z,10.63
2019-05-22T02:21:59.692Z,10.65
2019-05-22T02:24:30.810Z,10.75
2019-05-22T02:27:02.099Z,9.55
2019-05-22T02:29:32.827Z,7.85
2019-05-22T02:32:02.230Z,10.32
2019-05-22T02:34:31.746Z,9.35
2019-05-22T02:37:01.281Z,10.85
2019-05-22T02:39:32.729Z,8.55
2019-05-22T02:42:07.961Z,8.73
2019-05-22T02:44:38.253Z,7.75
2019-05-22T02:47:18.978Z,11.03
2019-05-22T02:49:41.169Z,10.35
2019-05-22T02:52:11.342Z,11.55
2019-05-22T02:54:41.507Z,8.30
2019-05-22T02:57:11.950Z,10.40
2019-05-22T02:59:42.569Z,9.45
2019-05-22T03:02:14.081Z,11.12
2019-05-22T03:04:48.246Z,11.83
2019-05-22T03:07:18.529Z,11.63
2019-05-22T03:09:49.434Z,8.60
2019-05-22T03:12:20.034Z,9.95
2019-05-22T03:14:49.861Z,11.78
2019-05-22T03:17:24.752Z,10.32
2019-05-22T03:19:54.729Z,10.80
2019-05-22T03:22:30.211Z,11.25
2019-05-22T03:25:04.102Z,9.00
2019-05-22T03:27:38.897Z,9.50
2019-05-22T03:30:14.017Z,8.75
2019-05-22T03:32:44.978Z,8.18
2019-05-22T03:35:15.574Z,6.40
2019-05-22T03:37:45.327Z,7.22
2019-05-22T03:40:16.527Z,7.17
2019-05-22T03:42:46.337Z,8.95
2019-05-22T03:45:16.578Z,6.10
2019-05-22T03:47:46.417Z,8.20
2019-05-22T03:50:17.869Z,7.65
2019-05-22T03:52:48.047Z,8.30
2019-05-22T03:55:17.916Z,6.65
2019-05-22T03:57:47.452Z,7.85
2019-05-22T04:00:19.689Z,11.73
2019-05-22T04:02:53.386Z,11.90
2019-05-22T04:05:25.047Z,8.48
2019-05-22T04:07:57.538Z,10.03
2019-05-22T04:10:31.788Z,9.73
2019-05-22T04:13:01.244Z,9.40
2019-05-22T04:15:31.029Z,8.28
2019-05-22T04:18:05.169Z,10.03
2019-05-22T04:20:35.157Z,9.50
2019-05-22T04:23:05.062Z,11.88
2019-05-22T04:25:34.770Z,8.38
2019-05-22T04:28:07.068Z,8.70
2019-05-22T04:30:36.695Z,6.47
2019-05-22T04:33:07.067Z,6.62
2019-05-22T04:35:37.211Z,6.53
2019-05-22T04:38:07.327Z,11.55
2019-05-22T04:40:42.434Z,6.45
2019-05-22T04:43:12.339Z,7.83
2019-05-22T04:45:42.165Z,8.25
2019-05-22T04:48:11.778Z,7.17
2019-05-22T04:50:41.655Z,6.58
2019-05-22T04:53:11.273Z,6.95
2019-05-22T04:55:40.798Z,7.65
2019-05-22T04:58:11.662Z,8.10
2019-05-22T05:00:41.319Z,7.62
2019-05-22T05:03:11.852Z,6.08
2019-05-22T05:05:43.115Z,7.03
2019-05-22T05:08:14.952Z,7.20
2019-05-22T05:10:48.448Z,7.30
2019-05-22T05:13:18.432Z,7.10
2019-05-22T05:15:47.944Z,6.85
2019-05-22T05:18:18.237Z,6.47
2019-05-22T05:20:47.695Z,6.35
2019-05-22T05:23:17.570Z,6.97
2019-05-22T05:25:47.294Z,7.35
2019-05-22T05:28:17.284Z,7.08
2019-05-22T05:30:47.254Z,6.12
2019-05-22T05:33:16.788Z,5.50
2019-05-22T05:35:46.692Z,7.00
2019-05-22T05:38:18.351Z,7.45
2019-05-22T05:40:48.361Z,7.60
2019-05-22T05:43:19.237Z,4.40
2019-05-22T05:45:50.898Z,5.37
2019-05-22T05:48:23.439Z,5.80
2019-05-22T05:50:57.619Z,6.20
2019-05-22T05:53:27.121Z,7.85
2019-05-22T05:56:01.296Z,7.65
2019-05-22T05:58:30.928Z,7.83
2019-05-22T06:01:06.950Z,6.58
2019-05-22T06:03:39.883Z,4.33
2019-05-22T06:06:14.399Z,5.67
2019-05-22T06:08:45.438Z,6.17
2019-05-22T06:11:19.620Z,5.78
2019-05-22T06:13:49.078Z,6.35
2019-05-22T06:16:24.825Z,5.35
2019-05-22T06:18:57.168Z,5.00
2019-05-22T06:21:27.279Z,3.02
2019-05-22T06:24:03.155Z,5.03
2019-05-22T06:26:37.313Z,4.75
2019-05-22T06:29:08.014Z,3.60
2019-05-22T06:31:42.163Z,5.40
2019-05-22T06:34:12.468Z,3.12
2019-05-22T06:36:42.943Z,2.87
2019-05-22T06:39:13.882Z,3.20
2019-05-22T06:41:44.035Z,3.47
2019-05-22T06:44:18.220Z,4.08
2019-05-22T06:46:49.121Z,4.90
2019-05-22T06:49:23.427Z,3.50
2019-05-22T06:51:53.036Z,6.72
2019-05-22T06:54:22.568Z,3.12
2019-05-22T06:56:52.274Z,3.00
2019-05-22T06:59:21.789Z,4.47
2019-05-22T07:01:51.249Z,5.65
2019-05-22T07:04:21.468Z,3.30
2019-05-22T07:06:51.067Z,6.12
2019-05-22T07:09:21.835Z,4.35
2019-05-22T07:11:52.972Z,3.62
2019-05-22T07:14:23.302Z,2.80
2019-05-22T07:16:52.903Z,2.25
2019-05-22T07:19:24.353Z,3.27
2019-05-22T07:21:53.884Z,3.30
2019-05-22T07:24:23.982Z,3.20
2019-05-22T07:26:54.431Z,6.03
2019-05-22T07:29:23.966Z,2.47
2019-05-22T07:31:55.986Z,3.37
2019-05-22T07:34:26.184Z,3.12
2019-05-22T07:36:56.251Z,3.17
2019-05-22T07:39:25.769Z,4.10
2019-05-22T07:41:55.397Z,3.40
2019-05-22T07:44:24.878Z,4.40
2019-05-22T07:46:56.232Z,4.72
2019-05-22T07:49:25.691Z,3.98
2019-05-22T07:52:01.171Z,3.67
2019-05-22T07:54:26.313Z,3.35
2019-05-22T07:56:56.010Z,2.92
2019-05-22T07:59:25.814Z,3.98
2019-05-22T08:01:55.338Z,4.72
2019-05-22T08:04:25.220Z,4.67
2019-05-22T08:06:55.181Z,3.95
2019-05-22T08:09:24.773Z,5.45
2019-05-22T08:11:54.231Z,3.50
2019-05-22T08:14:24.639Z,3.70
2019-05-22T08:16:54.825Z,3.40
2019-05-22T08:19:26.642Z,4.42
2019-05-22T08:22:06.814Z,3.95
2019-05-22T08:24:28.386Z,3.45
2019-05-22T08:26:58.572Z,3.02
2019-05-22T08:29:28.901Z,3.30
2019-05-22T08:32:00.463Z,2.72
2019-05-22T08:34:31.002Z,3.98
2019-05-22T08:37:01.402Z,4.53
2019-05-22T08:39:30.869Z,5.35
2019-05-22T08:42:00.392Z,5.08
2019-05-22T08:44:30.758Z,3.42
2019-05-22T08:47:01.136Z,4.15
2019-05-22T08:49:31.327Z,3.72
2019-05-22T08:52:00.790Z,3.77
2019-05-22T08:54:32.855Z,5.80
2019-05-22T08:57:02.539Z,3.80
2019-05-22T08:59:32.156Z,5.53
2019-05-22T09:02:02.195Z,4.00
2019-05-22T09:04:31.727Z,5.65
2019-05-22T09:07:01.556Z,5.72
2019-05-22T09:09:31.237Z,4.50
2019-05-22T09:12:00.820Z,6.92
2019-05-22T09:14:31.919Z,6.35
2019-05-22T09:17:01.726Z,5.17
2019-05-22T09:19:31.505Z,5.22
2019-05-22T09:22:01.910Z,6.22
2019-05-22T09:24:35.115Z,9.18
2019-05-22T09:27:05.008Z,7.00
2019-05-22T09:29:34.570Z,9.05
2019-05-22T09:32:04.400Z,8.05
2019-05-22T09:34:34.430Z,14.10
2019-05-22T09:37:04.800Z,12.60
2019-05-22T09:39:34.781Z,14.35
2019-05-22T09:42:04.705Z,22.58
2019-05-22T09:44:34.315Z,21.27
2019-05-22T09:47:04.735Z,18.10
2019-05-22T09:49:34.352Z,12.80
2019-05-22T09:52:05.707Z,6.67
2019-05-22T09:54:35.427Z,8.20
2019-05-22T09:57:05.712Z,8.43
2019-05-22T09:59:35.919Z,6.62
2019-05-22T10:02:06.284Z,7.85
2019-05-22T10:04:36.014Z,8.58
2019-05-22T10:07:05.630Z,9.23
2019-05-22T10:09:35.528Z,6.92
2019-05-22T10:12:05.662Z,7.37
2019-05-22T10:14:36.227Z,6.90
2019-05-22T10:17:06.216Z,6.67
2019-05-22T10:19:35.667Z,7.55
2019-05-22T10:22:05.635Z,8.53
2019-05-22T10:24:35.074Z,5.58
2019-05-22T10:27:06.284Z,9.18
2019-05-22T10:29:35.860Z,7.97
2019-05-22T10:32:06.040Z,6.10
2019-05-22T10:34:35.538Z,8.15
2019-05-22T10:37:06.612Z,6.70
2019-05-22T10:39:36.824Z,5.97
2019-05-22T10:42:06.450Z,5.97
2019-05-22T10:44:36.386Z,7.72
2019-05-22T10:47:06.528Z,6.92
2019-05-22T10:49:36.155Z,8.18
2019-05-22T10:52:06.497Z,6.75
2019-05-22T10:54:35.945Z,11.28
2019-05-22T10:57:06.330Z,8.45
2019-05-22T10:59:35.907Z,10.32
2019-05-22T11:02:06.397Z,10.72
2019-05-22T11:04:36.301Z,12.58
2019-05-22T11:07:07.893Z,12.73
2019-05-22T11:09:37.602Z,9.18
2019-05-22T11:12:07.788Z,11.38
2019-05-22T11:14:37.421Z,11.75
2019-05-22T11:17:07.049Z,11.80
2019-05-22T11:19:36.819Z,13.40
2019-05-22T11:22:06.427Z,15.20
2019-05-22T11:24:35.891Z,15.30
2019-05-22T11:27:05.509Z,12.30
2019-05-22T11:29:35.319Z,12.55
2019-05-22T11:32:05.595Z,12.03
2019-05-22T11:34:35.344Z,13.15
2019-05-22T11:37:04.901Z,10.18
2019-05-22T11:39:39.263Z,12.98
2019-05-22T11:42:06.929Z,12.82
2019-05-22T11:44:36.577Z,21.20
2019-05-22T11:47:06.537Z,18.10
2019-05-22T11:49:36.321Z,22.32
2019-05-22T11:52:06.394Z,21.17
2019-05-22T11:54:36.195Z,22.95
2019-05-22T11:57:05.782Z,22.30
2019-05-22T11:59:36.929Z,20.70
2019-05-22T12:02:08.137Z,22.82
2019-05-22T12:04:48.155Z,21.45
2019-05-22T12:07:11.020Z,22.45
2019-05-22T12:09:41.680Z,24.18
2019-05-22T12:12:12.100Z,24.70
2019-05-22T12:14:41.829Z,20.85
2019-05-22T12:17:12.474Z,25.23
2019-05-22T12:19:42.866Z,20.88
2019-05-22T12:22:12.508Z,25.80
2019-05-22T12:24:42.263Z,23.20
2019-05-22T12:27:12.891Z,21.73
2019-05-22T12:29:44.099Z,22.90
2019-05-22T12:32:15.430Z,22.93
2019-05-22T12:34:44.890Z,24.90
2019-05-22T12:37:14.422Z,21.20
2019-05-22T12:39:44.526Z,25.12
2019-05-22T12:42:15.317Z,23.80
2019-05-22T12:44:45.399Z,20.95
2019-05-22T12:47:15.681Z,21.68
2019-05-22T12:49:45.419Z,20.90
2019-05-22T12:52:15.381Z,23.10
2019-05-22T12:54:48.316Z,22.30
2019-05-22T12:57:16.223Z,24.63
2019-05-22T12:59:46.029Z,23.52
2019-05-22T13:02:17.106Z,28.05
2019-05-22T13:04:47.529Z,22.20
2019-05-22T13:07:17.195Z,20.85
2019-05-22T13:09:47.073Z,20.85
2019-05-22T13:12:17.253Z,22.60
2019-05-22T13:14:47.640Z,19.90
2019-05-22T13:17:17.260Z,20.02
2019-05-22T13:19:47.860Z,22.58
2019-05-22T13:22:20.418Z,19.92
2019-05-22T13:24:50.904Z,19.37
2019-05-22T13:27:22.572Z,15.60
2019-05-22T13:29:53.867Z,17.98
2019-05-22T13:32:24.051Z,15.53
2019-05-22T13:34:54.652Z,18.35
2019-05-22T13:37:24.232Z,16.52
2019-05-22T13:39:53.791Z,16.02
2019-05-22T13:42:23.705Z,17.07
2019-05-22T13:44:54.078Z,16.97
2019-05-22T13:47:24.068Z,17.30
2019-05-22T13:49:55.168Z,16.25
2019-05-22T13:52:25.024Z,14.53
2019-05-22T13:54:55.658Z,11.63
2019-05-22T13:57:26.740Z,12.40
2019-05-22T13:59:56.185Z,13.80
2019-05-22T14:02:27.418Z,9.65
2019-05-22T14:04:57.064Z,10.53
2019-05-22T14:07:29.696Z,12.75
2019-05-22T14:09:59.170Z,11.38
2019-05-22T14:12:28.943Z,8.88
2019-05-22T14:14:58.634Z,6.28
2019-05-22T14:17:28.341Z,7.65
2019-05-22T14:19:57.938Z,10.78
2019-05-22T14:22:27.642Z,9.70
2019-05-22T14:24:58.338Z,8.18
2019-05-22T14:27:27.850Z,10.35
2019-05-22T14:29:57.550Z,7.85
2019-05-22T14:32:29.907Z,8.80
2019-05-22T14:34:58.787Z,7.62
2019-05-22T14:37:30.944Z,10.28
2019-05-22T14:40:00.739Z,7.08
2019-05-22T14:42:30.649Z,7.42
2019-05-22T14:45:00.122Z,8.95
2019-05-22T14:47:33.573Z,7.72
2019-05-22T14:50:04.870Z,10.55
2019-05-22T14:52:34.740Z,8.35
2019-05-22T14:55:05.823Z,8.40
2019-05-22T14:57:41.165Z,10.93
2019-05-22T15:00:13.967Z,8.78
2019-05-22T15:02:43.881Z,11.50
2019-05-22T15:05:14.046Z,8.38
2019-05-22T15:07:43.753Z,9.68
2019-05-22T15:10:16.958Z,10.90
2019-05-22T15:12:47.023Z,10.00
2019-05-22T15:15:17.061Z,9.88
2019-05-22T15:17:46.912Z,12.70
2019-05-22T15:20:21.560Z,13.50
2019-05-22T15:22:55.596Z,15.18
2019-05-22T15:25:23.519Z,12.03
2019-05-22T15:27:53.283Z,10.82
2019-05-22T15:30:25.879Z,10.08
2019-05-22T15:32:55.392Z,8.48
2019-05-22T15:35:24.931Z,9.78
2019-05-22T15:37:55.807Z,9.45
2019-05-22T15:40:25.489Z,8.08
2019-05-22T15:42:55.141Z,10.78
2019-05-22T15:45:27.332Z,12.98
2019-05-22T15:48:02.034Z,11.00
2019-05-22T15:50:35.155Z,12.50
2019-05-22T15:53:11.665Z,10.45
2019-05-22T15:58:12.081Z,10.32
2019-05-22T16:00:43.217Z,11.73
2019-05-22T16:03:18.541Z,10.75
2019-05-22T16:05:49.211Z,10.55
2019-05-22T16:08:19.257Z,15.15
2019-05-22T16:10:51.825Z,14.78
2019-05-22T16:13:24.547Z,14.30
2019-05-22T16:15:55.731Z,13.38
2019-05-22T16:18:28.529Z,11.22
2019-05-22T16:21:02.632Z,11.50
2019-05-22T16:23:35.236Z,13.48
2019-05-22T16:26:07.276Z,14.55
2019-05-22T16:28:38.752Z,11.53
2019-05-22T16:31:10.549Z,10.90
2019-05-22T16:33:43.218Z,14.35
2019-05-22T16:36:14.168Z,10.78
2019-05-22T16:38:45.042Z,11.10
2019-05-22T16:41:15.053Z,14.50
2019-05-22T16:43:49.792Z,14.05
2019-05-22T16:46:18.935Z,14.18
2019-05-22T16:48:49.969Z,11.68
2019-05-22T16:51:21.623Z,8.73
2019-05-22T16:53:54.058Z,9.93
2019-05-22T16:56:24.880Z,10.10
2019-05-22T16:58:55.862Z,11.78
2019-05-22T17:01:27.005Z,10.03
2019-05-22T17:04:01.499Z,9.78
2019-05-22T17:06:34.186Z,7.35
2019-05-22T17:09:05.654Z,10.50
2019-05-22T17:11:35.093Z,9.95
2019-05-22T17:14:06.871Z,10.38
2019-05-22T17:16:39.793Z,7.95
2019-05-22T17:19:26.613Z,13.20
2019-05-22T17:21:45.775Z,10.30
2019-05-22T17:24:17.272Z,12.15
2019-05-22T17:26:48.030Z,10.32
2019-05-22T17:29:19.042Z,8.75
2019-05-22T17:31:48.488Z,11.78
2019-05-22T17:34:20.225Z,9.13
2019-05-22T17:36:49.705Z,7.35
2019-05-22T17:39:19.510Z,8.30
2019-05-22T17:41:55.676Z,7.53
2019-05-22T17:44:22.777Z,7.80
2019-05-22T17:46:52.716Z,9.25
2019-05-22T17:49:22.164Z,10.78
2019-05-22T17:51:53.303Z,8.33
2019-05-22T17:54:22.912Z,6.80
2019-05-22T17:56:52.914Z,7.17
2019-05-22T17:59:22.350Z,8.43
2019-05-22T18:01:52.092Z,8.80
2019-05-22T18:04:21.958Z,8.58
2019-05-22T18:06:51.697Z,9.25
2019-05-22T18:09:21.463Z,9.05
2019-05-22T18:11:51.065Z,10.08
2019-05-22T18:14:21.282Z,10.70
2019-05-22T18:16:50.917Z,11.25
2019-05-22T18:19:21.618Z,12.13
2019-05-22T18:21:51.103Z,166.62
2019-05-22T18:24:21.204Z,745.65
2019-05-22T18:26:50.714Z,593.55
2019-05-22T18:29:20.436Z,693.95
2019-05-22T18:31:50.018Z,500.83
2019-05-22T18:34:19.504Z,125.22
2019-05-22T18:36:50.591Z,21.33
2019-05-22T18:39:20.335Z,18.02
2019-05-22T18:41:49.789Z,21.07
2019-05-22T18:44:19.294Z,20.90
2019-05-22T18:46:49.240Z,13.15
2019-05-22T18:49:18.776Z,15.38
2019-05-22T18:51:48.412Z,15.38
2019-05-22T18:54:19.136Z,11.00
2019-05-22T18:56:48.700Z,13.48
2019-05-22T18:59:18.150Z,13.30
2019-05-22T19:01:47.684Z,16.42
2019-05-22T19:04:17.302Z,15.72
2019-05-22T19:06:46.939Z,14.18
2019-05-22T19:09:17.145Z,16.30
2019-05-22T19:11:46.673Z,16.60
2019-05-22T19:14:16.907Z,33.53
2019-05-22T19:16:46.658Z,22.60
2019-05-22T19:19:16.117Z,24.07
2019-05-22T19:21:45.636Z,18.67
2019-05-22T19:24:15.163Z,17.77
2019-05-22T19:26:44.711Z,17.15
2019-05-22T19:29:14.247Z,18.25
2019-05-22T19:31:43.683Z,19.15
2019-05-22T19:34:13.721Z,20.57
2019-05-22T19:36:43.951Z,22.00
2019-05-22T19:39:13.637Z,19.90
2019-05-22T19:41:43.097Z,24.20
2019-05-22T19:44:13.185Z,19.32
2019-05-22T19:46:42.664Z,25.90
2019-05-22T19:49:13.060Z,24.92
2019-05-22T19:51:43.030Z,25.30
2019-05-22T19:54:12.919Z,21.75
2019-05-22T19:56:43.001Z,26.10
2019-05-22T19:59:12.749Z,22.77
2019-05-22T20:01:42.621Z,22.98
2019-05-22T20:04:12.521Z,23.83
2019-05-22T20:06:43.267Z,21.33
2019-05-22T20:09:13.319Z,21.40
2019-05-22T20:11:43.047Z,22.65
2019-05-22T20:14:12.502Z,21.23
2019-05-22T20:16:41.985Z,24.23
2019-05-22T20:19:12.154Z,21.77
2019-05-22T20:21:41.595Z,28.02
2019-05-22T20:24:11.959Z,24.87
2019-05-22T20:26:41.986Z,27.77
2019-05-22T20:29:13.162Z,22.05
2019-05-22T20:31:42.603Z,24.20
2019-05-22T20:34:12.229Z,22.65
2019-05-22T20:36:42.085Z,25.40
2019-05-22T20:39:13.505Z,24.57
2019-05-22T20:41:43.047Z,23.42
2019-05-22T20:44:12.694Z,27.13
2019-05-22T20:46:45.539Z,33.83
2019-05-22T20:49:15.732Z,34.67
2019-05-22T20:51:45.805Z,26.73
2019-05-22T20:54:15.324Z,27.32
2019-05-22T20:56:46.927Z,26.10
2019-05-22T20:59:17.107Z,21.87
2019-05-22T21:01:47.452Z,28.20
2019-05-22T21:04:20.496Z,29.32
2019-05-22T21:06:54.397Z,29.07
2019-05-22T21:09:24.676Z,27.90
2019-05-22T21:14:38.238Z,28.02
2019-05-22T21:17:07.687Z,29.42
2019-05-22T21:19:37.696Z,28.62
2019-05-22T21:22:08.803Z,28.55
2019-05-22T21:24:38.260Z,30.40
2019-05-22T21:27:09.714Z,28.15
2019-05-22T21:29:39.568Z,25.88
2019-05-22T21:32:09.060Z,25.35
2019-05-22T21:34:39.481Z,26.85
2019-05-22T21:37:09.905Z,25.05
2019-05-22T21:39:39.406Z,28.55
2019-05-22T21:42:09.649Z,27.55
2019-05-22T21:44:40.136Z,25.35
2019-05-22T21:47:10.514Z,28.65
2019-05-22T21:49:40.164Z,30.75
2019-05-22T21:52:11.275Z,28.20
2019-05-22T21:54:41.113Z,30.57
2019-05-22T21:57:11.659Z,31.73
2019-05-22T21:59:41.559Z,31.35
2019-05-22T22:02:14.074Z,33.48
2019-05-22T22:04:44.834Z,32.08
2019-05-22T22:07:14.447Z,31.73
2019-05-22T22:09:44.647Z,34.55
2019-05-22T22:12:19.072Z,33.90
2019-05-22T22:14:49.769Z,41.25
2019-05-22T22:17:20.955Z,40.55
2019-05-22T22:19:50.408Z,36.95
2019-05-22T22:22:24.736Z,35.20
2019-05-22T22:24:54.548Z,33.58
2019-05-22T22:27:24.397Z,34.70
2019-05-22T22:29:54.497Z,34.45
2019-05-22T22:32:26.121Z,31.65
2019-05-22T22:34:56.336Z,33.18
2019-05-22T22:37:28.957Z,31.85
2019-05-22T22:40:00.056Z,35.35
2019-05-22T22:42:31.641Z,35.38
2019-05-22T22:45:04.758Z,39.63
2019-05-22T22:47:44.073Z,36.42
2019-05-22T22:50:14.820Z,30.10
2019-05-22T22:52:45.509Z,36.70
2019-05-22T22:55:17.372Z,32.33
2019-05-22T22:57:48.476Z,32.05
2019-05-22T23:00:20.681Z,34.63
2019-05-22T23:02:51.596Z,31.50
2019-05-22T23:05:21.235Z,28.87
2019-05-22T23:07:51.025Z,30.15
2019-05-22T23:10:23.081Z,33.63
2019-05-22T23:12:54.718Z,30.10
2019-05-22T23:15:25.704Z,33.42
2019-05-22T23:17:55.904Z,33.73
2019-05-22T23:20:27.364Z,31.05
2019-05-22T23:22:55.912Z,30.00
2019-05-22T23:25:26.036Z,29.10
2019-05-22T23:27:55.504Z,27.65
2019-05-22T23:30:25.783Z,26.85
2019-05-22T23:32:55.260Z,25.52
2019-05-22T23:35:24.866Z,26.35
2019-05-22T23:37:54.403Z,24.98
2019-05-22T23:40:27.814Z,30.88
2019-05-22T23:42:59.347Z,30.05
2019-05-22T23:45:29.381Z,26.10
2019-05-22T23:48:04.035Z,27.22
2019-05-22T23:50:35.330Z,26.50
2019-05-22T23:53:06.173Z,27.05
2019-05-22T23:55:36.376Z,27.02
2019-05-22T23:58:07.959Z,27.25
